Celtic Voyager — EIQN — position and weather

sailwx.info

Track history (hours):
 
Tides and Currents Weather Stations Pressure Air Temp Water Temp Dewpoint Dewpoint Depression Visibility Wind Speed Wind Dir Waves Ship Positions

Oceanographic research ship Celtic Voyager (Ireland)

Detailed information on ship capabilities available from University of Delaware's Ocean Information Center.

Last reported at 2018-Dec-05 02:32 UTC. Time now 2018-Dec-13 15:09 UTC.
Position N 52°37' W 009°58'.
Warning: this ship's position is 8 days out of date.

Length 31 m; beam 8 m.

Type: Ship. MMSI: 250089000.

Date/timePositionNaut miles runAvg speedWind from/ knotsBaromVisibWave heightAir tempDewpointWater temp
2018-Dec-05 02:32N 52°37' W 009°58'210.5
2018-Dec-05 02:22N 52°36' W 009°60'410.2
2018-Dec-05 01:59N 52°33' W 010°04'510.1
2018-Dec-05 01:30N 52°29' W 010°08'510.2
2018-Dec-05 00:59N 52°25' W 010°13'510.2
2018-Dec-05 00:30N 52°21' W 010°18'510.3
2018-Dec-05 00:00N 52°16' W 010°23'510.4
2018-Dec-04 23:31N 52°12' W 010°29'810.0
2018-Dec-04 22:40N 52°04' W 010°31'2 9.8
2018-Dec-04 22:30N 52°03' W 010°30'5 9.8
2018-Dec-04 22:00N 51°58' W 010°29'1510.1
2018-Dec-04 20:29N 51°43' W 010°23'7 9.9
2018-Dec-04 19:46N 51°36' W 010°22'3 9.7
2018-Dec-04 19:28N 51°34' W 010°19'510.8
2018-Dec-04 19:00N 51°31' W 010°11'510.1
2018-Dec-04 18:30N 51°29' W 010°04'510.0
2018-Dec-04 18:00N 51°27' W 009°57'510.0
2018-Dec-04 17:30N 51°25' W 009°49'510.1
2018-Dec-04 17:00N 51°25' W 009°41'5 9.9
2018-Dec-04 16:28N 51°24' W 009°33'5 9.4
2018-Dec-04 16:00N 51°25' W 009°26'6 9.3
2018-Dec-04 15:21N 51°27' W 009°17'4 9.2
2018-Dec-04 14:57N 51°28' W 009°11'4 8.7
2018-Dec-04 14:30N 51°29' W 009°05'5 9.0
2018-Dec-04 13:56N 51°30' W 008°57'4 8.7
2018-Dec-04 13:30N 51°31' W 008°51'8 8.7
2018-Dec-04 12:37N 51°33' W 008°39'1 8.6
2018-Dec-04 12:30N 51°34' W 008°38'4 8.7
2018-Dec-04 12:00N 51°35' W 008°31'4 8.6
2018-Dec-04 11:30N 51°38' W 008°26'5 9.0
2018-Dec-04 11:01N 51°41' W 008°21'5 9.3
2018-Dec-04 10:30N 51°45' W 008°16'4 8.9
2018-Dec-04 10:00N 51°49' W 008°16'3 5.7
2018-Dec-04 09:30N 51°51' W 008°20'4 7.8
2018-Dec-04 09:00N 51°54' W 008°24'2 4.6
2018-Dec-04 08:30N 51°54' W 008°27'0 0.0
2018-Dec-04 07:59N 51°54' W 008°27'0 0.0
2018-Dec-04 07:20N 51°54' W 008°27'0 0.0
2018-Dec-04 06:56N 51°54' W 008°27'0 0.0
2018-Dec-04 06:26N 51°54' W 008°27'0 0.0
2018-Dec-04 05:50N 51°54' W 008°27'0 0.0
2018-Dec-04 05:26N 51°54' W 008°27'0 0.0
2018-Dec-04 04:56N 51°54' W 008°27'0 0.0
2018-Dec-04 04:26N 51°54' W 008°27'0 0.0
2018-Dec-04 03:44N 51°54' W 008°27'0 0.0
2018-Dec-04 03:08N 51°54' W 008°27'0 0.0
2018-Dec-04 02:56N 51°54' W 008°27'0 0.0
2018-Dec-04 02:14N 51°54' W 008°27'0 0.0
2018-Dec-04 01:56N 51°54' W 008°27'0 0.0
2018-Dec-04 01:26N 51°54' W 008°27'0 0.0
2018-Dec-04 00:56N 51°54' W 008°27'0 0.0
2018-Dec-04 00:26N 51°54' W 008°27'0 0.0
2018-Dec-03 23:56N 51°54' W 008°27'0 0.0
2018-Dec-03 23:26N 51°54' W 008°27'0 0.0
2018-Dec-03 22:56N 51°54' W 008°27'0 0.0
2018-Dec-03 22:20N 51°54' W 008°27'0 0.0
2018-Dec-03 20:47N 51°54' W 008°27'0 0.0
2018-Dec-03 20:29N 51°54' W 008°27'0 0.0
2018-Dec-03 19:56N 51°54' W 008°27'0 0.0
2018-Dec-03 19:26N 51°54' W 008°27'0 0.0
2018-Dec-03 18:56N 51°54' W 008°27'0 0.0
2018-Dec-03 18:25N 51°54' W 008°27'0 0.0
2018-Dec-03 17:55N 51°54' W 008°27'0 0.0
2018-Dec-03 17:25N 51°54' W 008°27'0 0.0
2018-Dec-03 16:55N 51°54' W 008°27'0 0.0
2018-Dec-03 16:25N 51°54' W 008°27'0 0.0
2018-Dec-03 15:55N 51°54' W 008°27'0 0.0
2018-Dec-03 15:13N 51°54' W 008°27'0 0.0
2018-Dec-03 14:49N 51°54' W 008°27'0 0.0
2018-Dec-03 14:25N 51°54' W 008°27'0 0.0
2018-Dec-03 13:49N 51°54' W 008°27'0 0.0
2018-Dec-03 13:28N 51°54' W 008°27'0 0.0
2018-Dec-03 12:49N 51°54' W 008°27'0 0.0
2018-Dec-03 12:25N 51°54' W 008°27'0 0.0
2018-Dec-03 11:58N 51°54' W 008°27'0 0.0
2018-Dec-03 11:28N 51°54' W 008°27'0 0.0
2018-Dec-03 10:58N 51°54' W 008°27'0 0.0
2018-Dec-03 10:28N 51°54' W 008°27'0 0.0
2018-Dec-03 09:58N 51°54' W 008°27'0 0.0
2018-Dec-03 09:28N 51°54' W 008°27'0 0.0
2018-Dec-03 08:58N 51°54' W 008°27'0 0.0
2018-Dec-03 08:28N 51°54' W 008°27'0 0.0
2018-Dec-03 07:58N 51°54' W 008°27'0 0.0
2018-Dec-03 07:28N 51°54' W 008°27'0 0.0
2018-Dec-03 06:55N 51°54' W 008°27'0 0.0
2018-Dec-03 06:25N 51°54' W 008°27'0 0.0
2018-Dec-03 05:13N 51°54' W 008°27'0 0.0
2018-Dec-03 04:49N 51°54' W 008°27'0 0.0
2018-Dec-03 03:43N 51°54' W 008°27'0 0.0
2018-Dec-03 03:13N 51°54' W 008°27'0 0.0
2018-Dec-03 02:55N 51°54' W 008°27'0 0.0
2018-Dec-03 01:49N 51°54' W 008°27'0 0.0
2018-Dec-03 01:10N 51°54' W 008°27'0 0.0
2018-Dec-03 00:07N 51°54' W 008°27'0 0.0
2018-Dec-02 23:37N 51°54' W 008°27'0 0.0
2018-Dec-02 23:13N 51°54' W 008°27'0 0.0
2018-Dec-02 22:55N 51°54' W 008°27'0 0.0
2018-Dec-02 22:25N 51°54' W 008°27'0 0.0
2018-Dec-02 21:55N 51°54' W 008°27'0 0.0
2018-Dec-02 21:28N 51°54' W 008°27'0 0.0
2018-Dec-02 20:55N 51°54' W 008°27'0 0.0
2018-Dec-02 20:25N 51°54' W 008°27'0 0.0
2018-Dec-02 19:55N 51°54' W 008°27'0 0.0
2018-Dec-02 19:28N 51°54' W 008°27'0 0.0
2018-Dec-02 18:55N 51°54' W 008°27'0 0.0
2018-Dec-02 18:22N 51°54' W 008°27'0 0.0
2018-Dec-02 17:58N 51°54' W 008°27'0 0.0
2018-Dec-02 17:28N 51°54' W 008°27'0 0.0
2018-Dec-02 16:55N 51°54' W 008°27'0 0.0
2018-Dec-02 11:49N 51°54' W 008°27'0 0.0
2018-Dec-02 08:22N 51°54' W 008°27'1 3.3
2018-Dec-02 08:00N 51°54' W 008°26'4 7.2
2018-Dec-02 07:30N 51°53' W 008°20'3 5.2
2018-Dec-02 07:00N 51°51' W 008°17'3 6.9
2018-Dec-02 06:30N 51°48' W 008°16'2 4.3
2018-Dec-02 06:00N 51°46' W 008°13'4 7.0
2018-Dec-02 05:30N 51°46' W 008°07'4 7.8
2018-Dec-02 05:00N 51°48' W 008°01'4 7.7
2018-Dec-02 04:30N 51°50' W 007°56'4 7.9
2018-Dec-02 04:00N 51°52' W 007°50'4 7.9
2018-Dec-02 03:30N 51°54' W 007°45'4 7.7
2018-Dec-02 03:00N 51°56' W 007°40'88 6.9
2018-Dec-01 14:19N 52°58' W 005°57'2 6.9
2018-Dec-01 14:00N 52°60' W 005°57'4 7.1
2018-Dec-01 13:30N 53°03' W 005°57'7 7.5
2018-Dec-01 12:34N 53°10' W 005°58'9 8.5
2018-Dec-01 11:33N 53°19' W 005°58'3 0.9
2018-Dec-01 08:05N 53°22' W 006°00'1 2.9
2018-Dec-01 07:53N 53°22' W 005°60'1 3.2
2018-Dec-01 07:30N 53°20' W 005°60'2 3.4
2018-Dec-01 06:59N 53°19' W 005°59'11 6.9
2018-Dec-01 05:21N 53°08' W 005°58'3 8.8
2018-Dec-01 05:00N 53°04' W 005°58'5 9.1
2018-Dec-01 04:30N 52°60' W 005°57'4 8.9
2018-Dec-01 04:00N 52°55' W 005°57'4 6.8
2018-Dec-01 03:27N 52°52' W 005°59'81 5.8
2018-Nov-30 13:29N 51°53' W 007°29'4 8.5
2018-Nov-30 13:00N 51°52' W 007°36'4 8.5
2018-Nov-30 12:30N 51°51' W 007°42'4 8.5
2018-Nov-30 12:00N 51°49' W 007°49'4 8.7
2018-Nov-30 11:30N 51°48' W 007°56'4 8.7
2018-Nov-30 11:00N 51°47' W 008°02'4 8.5
2018-Nov-30 10:30N 51°46' W 008°09'4 8.1
2018-Nov-30 10:00N 51°47' W 008°15'4 7.2
2018-Nov-30 09:30N 51°50' W 008°16'3 5.4
2018-Nov-30 09:00N 51°52' W 008°20'3 6.2
2018-Nov-30 08:30N 51°54' W 008°23'3 5.1
2018-Nov-30 08:00N 51°54' W 008°27'0 0.3
2018-Nov-30 07:30N 51°54' W 008°28'0 0.0
2018-Nov-30 07:00N 51°54' W 008°28'0 0.0
2018-Nov-30 06:30N 51°54' W 008°28'0 0.0
2018-Nov-30 06:00N 51°54' W 008°28'0 0.0
2018-Nov-30 05:30N 51°54' W 008°28'0 0.0
2018-Nov-30 05:00N 51°54' W 008°28'0 0.0
2018-Nov-30 04:06N 51°54' W 008°28'0 0.0
2018-Nov-30 03:57N 51°54' W 008°28'0 0.0
2018-Nov-30 03:30N 51°54' W 008°28'0 0.0
2018-Nov-30 03:00N 51°54' W 008°28'0 0.0
2018-Nov-30 02:30N 51°54' W 008°28'0 0.0
2018-Nov-30 01:57N 51°54' W 008°28'0 0.0
2018-Nov-30 01:30N 51°54' W 008°28'0 0.0
2018-Nov-30 01:00N 51°54' W 008°28'0 0.0
2018-Nov-30 00:30N 51°54' W 008°28'0 0.0
2018-Nov-30 00:00N 51°54' W 008°28'0 0.0
2018-Nov-29 23:30N 51°54' W 008°28'0 0.0
2018-Nov-29 23:00N 51°54' W 008°28'0 0.0
2018-Nov-29 22:30N 51°54' W 008°28'0 0.0
2018-Nov-29 22:00N 51°54' W 008°28'0 0.0
2018-Nov-29 21:30N 51°54' W 008°28'0 0.0
2018-Nov-29 21:00N 51°54' W 008°28'0 0.0
2018-Nov-29 20:30N 51°54' W 008°28'0 0.0
2018-Nov-29 20:00N 51°54' W 008°28'0 0.0
2018-Nov-29 19:30N 51°54' W 008°28'0 0.0
2018-Nov-29 19:00N 51°54' W 008°28'0 0.0
2018-Nov-29 18:30N 51°54' W 008°28'0 0.0
2018-Nov-29 18:00N 51°54' W 008°28'0 0.0
2018-Nov-29 17:30N 51°54' W 008°28'0 0.0
2018-Nov-29 16:51N 51°54' W 008°28'0 0.0
2018-Nov-29 16:27N 51°54' W 008°28'0 0.0
2018-Nov-29 15:57N 51°54' W 008°28'0 0.0
2018-Nov-29 15:27N 51°54' W 008°28'0 0.0
2018-Nov-29 14:57N 51°54' W 008°28'0 0.0
2018-Nov-29 14:27N 51°54' W 008°28'0 0.0
2018-Nov-29 13:57N 51°54' W 008°28'0 0.0
2018-Nov-29 13:26N 51°54' W 008°28'0 0.0
2018-Nov-29 12:56N 51°54' W 008°28'0 0.0
2018-Nov-29 12:26N 51°54' W 008°28'0 0.0
2018-Nov-29 11:38N 51°54' W 008°28'0 0.0
2018-Nov-29 11:29N 51°54' W 008°28'0 0.0
2018-Nov-29 10:59N 51°54' W 008°28'0 0.0
2018-Nov-29 10:29N 51°54' W 008°28'0 0.0
2018-Nov-29 09:59N 51°54' W 008°28'0 0.0
2018-Nov-29 09:29N 51°54' W 008°28'0 0.0
2018-Nov-29 08:59N 51°54' W 008°28'0 0.0
2018-Nov-29 08:29N 51°54' W 008°28'0 0.0
2018-Nov-29 07:59N 51°54' W 008°28'0 0.0
2018-Nov-29 07:29N 51°54' W 008°28'0 0.0
2018-Nov-29 06:59N 51°54' W 008°28'0 0.0
2018-Nov-29 06:29N 51°54' W 008°28'0 0.0
2018-Nov-29 05:59N 51°54' W 008°28'0 0.0
2018-Nov-29 05:29N 51°54' W 008°28'0 0.0
2018-Nov-29 04:59N 51°54' W 008°28'0 0.0
2018-Nov-29 04:29N 51°54' W 008°28'0 0.0
2018-Nov-29 03:59N 51°54' W 008°28'0 0.0
2018-Nov-29 02:59N 51°54' W 008°28'0 0.0
2018-Nov-29 02:29N 51°54' W 008°28'0 0.0
2018-Nov-29 01:56N 51°54' W 008°28'0 0.0
2018-Nov-29 01:29N 51°54' W 008°28'0 0.0
2018-Nov-29 00:56N 51°54' W 008°28'0 0.0
2018-Nov-29 00:29N 51°54' W 008°28'0 0.0
2018-Nov-28 23:59N 51°54' W 008°28'0 0.0
2018-Nov-28 23:26N 51°54' W 008°28'0 0.0
2018-Nov-28 22:59N 51°54' W 008°28'0 0.0
2018-Nov-28 22:29N 51°54' W 008°28'0 0.0
2018-Nov-28 21:59N 51°54' W 008°28'0 0.0
2018-Nov-28 21:29N 51°54' W 008°28'0 0.0
2018-Nov-28 20:59N 51°54' W 008°28'0 0.0
2018-Nov-28 20:29N 51°54' W 008°28'0 0.0
2018-Nov-28 19:59N 51°54' W 008°28'0 0.0
2018-Nov-28 19:29N 51°54' W 008°28'0 0.0
2018-Nov-28 18:59N 51°54' W 008°28'0 0.0
2018-Nov-28 18:29N 51°54' W 008°28'0 0.0
2018-Nov-28 17:59N 51°54' W 008°28'0 0.0
2018-Nov-28 17:26N 51°54' W 008°28'0 0.0
2018-Nov-28 16:56N 51°54' W 008°28'0 0.0
2018-Nov-28 15:50N 51°54' W 008°28'0 0.0
2018-Nov-28 15:26N 51°54' W 008°28'0 0.0
2018-Nov-28 14:56N 51°54' W 008°28'0 0.0
2018-Nov-28 14:29N 51°54' W 008°28'0 0.0
2018-Nov-28 13:56N 51°54' W 008°28'0 0.0
2018-Nov-28 13:26N 51°54' W 008°28'0 0.0
2018-Nov-28 12:50N 51°54' W 008°28'0 0.0
2018-Nov-28 12:29N 51°54' W 008°28'0 0.0
2018-Nov-28 11:59N 51°54' W 008°28'0 0.0
2018-Nov-28 11:29N 51°54' W 008°28'0 0.0
2018-Nov-28 10:59N 51°54' W 008°28'0 0.0
2018-Nov-28 10:29N 51°54' W 008°28'0 0.0
2018-Nov-28 09:59N 51°54' W 008°28'0 0.0
2018-Nov-28 09:29N 51°54' W 008°28'0 0.0
2018-Nov-28 08:59N 51°54' W 008°28'0 0.0
2018-Nov-28 08:29N 51°54' W 008°28'0 0.0
2018-Nov-28 07:59N 51°54' W 008°28'0 0.0
2018-Nov-28 07:29N 51°54' W 008°28'0 0.0
2018-Nov-28 06:59N 51°54' W 008°28'0 0.0
2018-Nov-28 06:29N 51°54' W 008°28'0 0.0
2018-Nov-28 05:59N 51°54' W 008°28'0 0.0
2018-Nov-28 05:29N 51°54' W 008°28'0 0.0
2018-Nov-28 04:44N 51°54' W 008°28'0 0.0
2018-Nov-28 04:23N 51°54' W 008°28'0 0.0
2018-Nov-28 03:59N 51°54' W 008°28'0 0.0
2018-Nov-28 03:26N 51°54' W 008°28'0 0.0
2018-Nov-28 02:59N 51°54' W 008°28'0 0.0
2018-Nov-28 02:16N 51°54' W 008°28'0 0.0
2018-Nov-28 01:25N 51°54' W 008°28'0 0.0
2018-Nov-27 23:43N 51°54' W 008°28'0 0.0
2018-Nov-27 23:28N 51°54' W 008°28'0 0.0
2018-Nov-27 22:49N 51°54' W 008°28'0 0.0
2018-Nov-27 22:25N 51°54' W 008°28'0 0.0
2018-Nov-27 21:55N 51°54' W 008°28'0 0.0
2018-Nov-27 21:25N 51°54' W 008°28'0 0.0
2018-Nov-27 20:55N 51°54' W 008°28'0 0.0
2018-Nov-27 20:28N 51°54' W 008°28'0 0.0
2018-Nov-27 19:55N 51°54' W 008°28'0 0.0
2018-Nov-27 19:25N 51°54' W 008°28'0 0.0
2018-Nov-27 18:58N 51°54' W 008°28'0 0.0
2018-Nov-27 18:28N 51°54' W 008°28'0 0.0
2018-Nov-27 17:58N 51°54' W 008°28'0 0.0
2018-Nov-27 17:28N 51°54' W 008°28'0 0.0
2018-Nov-27 17:00N 51°54' W 008°28'2 3.5
2018-Nov-27 16:30N 51°54' W 008°25'4 7.5
2018-Nov-27 16:00N 51°52' W 008°20'3 5.5
2018-Nov-27 15:30N 51°51' W 008°16'2 3.3
2018-Nov-27 15:00N 51°49' W 008°16'2 3.3
2018-Nov-27 14:30N 51°51' W 008°16'2 3.2
2018-Nov-27 14:00N 51°49' W 008°16'1 1.2
2018-Nov-27 13:30N 51°50' W 008°16'1 2.5
2018-Nov-27 13:00N 51°51' W 008°16'0 0.5
2018-Nov-27 12:31N 51°51' W 008°16'2 3.9
2018-Nov-27 12:00N 51°49' W 008°16'1 2.5
2018-Nov-27 11:31N 51°50' W 008°16'0 0.1
2018-Nov-27 11:00N 51°50' W 008°16'0 0.6
2018-Nov-27 10:30N 51°50' W 008°16'2 4.8
2018-Nov-27 10:00N 51°51' W 008°20'4 7.1
2018-Nov-27 09:30N 51°54' W 008°23'3 5.5
2018-Nov-27 09:00N 51°54' W 008°28'0 0.1
2018-Nov-27 06:46N 51°54' W 008°28'0 0.0
2018-Nov-27 06:28N 51°54' W 008°28'0 0.0
2018-Nov-27 05:58N 51°54' W 008°28'0 0.0
2018-Nov-27 05:28N 51°54' W 008°28'0 0.0
2018-Nov-27 04:58N 51°54' W 008°28'0 0.0
2018-Nov-27 04:28N 51°54' W 008°28'0 0.0
2018-Nov-27 03:58N 51°54' W 008°28'0 0.0
2018-Nov-27 03:25N 51°54' W 008°28'0 0.0
2018-Nov-27 02:28N 51°54' W 008°28'0 0.0
2018-Nov-27 01:55N 51°54' W 008°28'0 0.0
2018-Nov-27 01:28N 51°54' W 008°28'0 0.0
2018-Nov-27 00:58N 51°54' W 008°28'0 0.0
2018-Nov-27 00:28N 51°54' W 008°28'  
Track history (hours):
 
Tides and Currents Weather Stations Pressure Air Temp Water Temp Dewpoint Dewpoint Depression Visibility Wind Speed Wind Dir Waves Ship Positions

Oceanographic research ship Celtic Voyager (Ireland)

Detailed information on ship capabilities available from University of Delaware's Ocean Information Center.

Last reported at 2018-Dec-05 02:32 UTC. Time now 2018-Dec-13 15:09 UTC.
Position N 52°37' W 009°58'.
Warning: this ship's position is 8 days out of date.

Length 31 m; beam 8 m.

Type: Ship. MMSI: 250089000.

Date/timePositionNaut miles runAvg speedWind from/ knotsBaromVisibWave heightAir tempDewpointWater temp
2018-Dec-05 02:32N 52°37' W 009°58'210.5
2018-Dec-05 02:22N 52°36' W 009°60'410.2
2018-Dec-05 01:59N 52°33' W 010°04'510.1
2018-Dec-05 01:30N 52°29' W 010°08'510.2
2018-Dec-05 00:59N 52°25' W 010°13'510.2
2018-Dec-05 00:30N 52°21' W 010°18'510.3
2018-Dec-05 00:00N 52°16' W 010°23'510.4
2018-Dec-04 23:31N 52°12' W 010°29'810.0
2018-Dec-04 22:40N 52°04' W 010°31'2 9.8
2018-Dec-04 22:30N 52°03' W 010°30'5 9.8
2018-Dec-04 22:00N 51°58' W 010°29'1510.1
2018-Dec-04 20:29N 51°43' W 010°23'7 9.9
2018-Dec-04 19:46N 51°36' W 010°22'3 9.7
2018-Dec-04 19:28N 51°34' W 010°19'510.8
2018-Dec-04 19:00N 51°31' W 010°11'510.1
2018-Dec-04 18:30N 51°29' W 010°04'510.0
2018-Dec-04 18:00N 51°27' W 009°57'510.0
2018-Dec-04 17:30N 51°25' W 009°49'510.1
2018-Dec-04 17:00N 51°25' W 009°41'5 9.9
2018-Dec-04 16:28N 51°24' W 009°33'5 9.4
2018-Dec-04 16:00N 51°25' W 009°26'6 9.3
2018-Dec-04 15:21N 51°27' W 009°17'4 9.2
2018-Dec-04 14:57N 51°28' W 009°11'4 8.7
2018-Dec-04 14:30N 51°29' W 009°05'5 9.0
2018-Dec-04 13:56N 51°30' W 008°57'4 8.7
2018-Dec-04 13:30N 51°31' W 008°51'8 8.7
2018-Dec-04 12:37N 51°33' W 008°39'1 8.6
2018-Dec-04 12:30N 51°34' W 008°38'4 8.7
2018-Dec-04 12:00N 51°35' W 008°31'4 8.6
2018-Dec-04 11:30N 51°38' W 008°26'5 9.0
2018-Dec-04 11:01N 51°41' W 008°21'5 9.3
2018-Dec-04 10:30N 51°45' W 008°16'4 8.9
2018-Dec-04 10:00N 51°49' W 008°16'3 5.7
2018-Dec-04 09:30N 51°51' W 008°20'4 7.8
2018-Dec-04 09:00N 51°54' W 008°24'2 4.6
2018-Dec-04 08:30N 51°54' W 008°27'0 0.0
2018-Dec-04 07:59N 51°54' W 008°27'0 0.0
2018-Dec-04 07:20N 51°54' W 008°27'0 0.0
2018-Dec-04 06:56N 51°54' W 008°27'0 0.0
2018-Dec-04 06:26N 51°54' W 008°27'0 0.0
2018-Dec-04 05:50N 51°54' W 008°27'0 0.0
2018-Dec-04 05:26N 51°54' W 008°27'0 0.0
2018-Dec-04 04:56N 51°54' W 008°27'0 0.0
2018-Dec-04 04:26N 51°54' W 008°27'0 0.0
2018-Dec-04 03:44N 51°54' W 008°27'0 0.0
2018-Dec-04 03:08N 51°54' W 008°27'0 0.0
2018-Dec-04 02:56N 51°54' W 008°27'0 0.0
2018-Dec-04 02:14N 51°54' W 008°27'0 0.0
2018-Dec-04 01:56N 51°54' W 008°27'0 0.0
2018-Dec-04 01:26N 51°54' W 008°27'0 0.0
2018-Dec-04 00:56N 51°54' W 008°27'0 0.0
2018-Dec-04 00:26N 51°54' W 008°27'0 0.0
2018-Dec-03 23:56N 51°54' W 008°27'0 0.0
2018-Dec-03 23:26N 51°54' W 008°27'0 0.0
2018-Dec-03 22:56N 51°54' W 008°27'0 0.0
2018-Dec-03 22:20N 51°54' W 008°27'0 0.0
2018-Dec-03 20:47N 51°54' W 008°27'0 0.0
2018-Dec-03 20:29N 51°54' W 008°27'0 0.0
2018-Dec-03 19:56N 51°54' W 008°27'0 0.0
2018-Dec-03 19:26N 51°54' W 008°27'0 0.0
2018-Dec-03 18:56N 51°54' W 008°27'0 0.0
2018-Dec-03 18:25N 51°54' W 008°27'0 0.0
2018-Dec-03 17:55N 51°54' W 008°27'0 0.0
2018-Dec-03 17:25N 51°54' W 008°27'0 0.0
2018-Dec-03 16:55N 51°54' W 008°27'0 0.0
2018-Dec-03 16:25N 51°54' W 008°27'0 0.0
2018-Dec-03 15:55N 51°54' W 008°27'0 0.0
2018-Dec-03 15:13N 51°54' W 008°27'0 0.0
2018-Dec-03 14:49N 51°54' W 008°27'0 0.0
2018-Dec-03 14:25N 51°54' W 008°27'0 0.0
2018-Dec-03 13:49N 51°54' W 008°27'0 0.0
2018-Dec-03 13:28N 51°54' W 008°27'0 0.0
2018-Dec-03 12:49N 51°54' W 008°27'0 0.0
2018-Dec-03 12:25N 51°54' W 008°27'0 0.0
2018-Dec-03 11:58N 51°54' W 008°27'0 0.0
2018-Dec-03 11:28N 51°54' W 008°27'0 0.0
2018-Dec-03 10:58N 51°54' W 008°27'0 0.0
2018-Dec-03 10:28N 51°54' W 008°27'0 0.0
2018-Dec-03 09:58N 51°54' W 008°27'0 0.0
2018-Dec-03 09:28N 51°54' W 008°27'0 0.0
2018-Dec-03 08:58N 51°54' W 008°27'0 0.0
2018-Dec-03 08:28N 51°54' W 008°27'0 0.0
2018-Dec-03 07:58N 51°54' W 008°27'0 0.0
2018-Dec-03 07:28N 51°54' W 008°27'0 0.0
2018-Dec-03 06:55N 51°54' W 008°27'0 0.0
2018-Dec-03 06:25N 51°54' W 008°27'0 0.0
2018-Dec-03 05:13N 51°54' W 008°27'0 0.0
2018-Dec-03 04:49N 51°54' W 008°27'0 0.0
2018-Dec-03 03:43N 51°54' W 008°27'0 0.0
2018-Dec-03 03:13N 51°54' W 008°27'0 0.0
2018-Dec-03 02:55N 51°54' W 008°27'0 0.0
2018-Dec-03 01:49N 51°54' W 008°27'0 0.0
2018-Dec-03 01:10N 51°54' W 008°27'0 0.0
2018-Dec-03 00:07N 51°54' W 008°27'0 0.0
2018-Dec-02 23:37N 51°54' W 008°27'0 0.0
2018-Dec-02 23:13N 51°54' W 008°27'0 0.0
2018-Dec-02 22:55N 51°54' W 008°27'0 0.0
2018-Dec-02 22:25N 51°54' W 008°27'0 0.0
2018-Dec-02 21:55N 51°54' W 008°27'0 0.0
2018-Dec-02 21:28N 51°54' W 008°27'0 0.0
2018-Dec-02 20:55N 51°54' W 008°27'0 0.0
2018-Dec-02 20:25N 51°54' W 008°27'0 0.0
2018-Dec-02 19:55N 51°54' W 008°27'0 0.0
2018-Dec-02 19:28N 51°54' W 008°27'0 0.0
2018-Dec-02 18:55N 51°54' W 008°27'0 0.0
2018-Dec-02 18:22N 51°54' W 008°27'0 0.0
2018-Dec-02 17:58N 51°54' W 008°27'0 0.0
2018-Dec-02 17:28N 51°54' W 008°27'0 0.0
2018-Dec-02 16:55N 51°54' W 008°27'0 0.0
2018-Dec-02 11:49N 51°54' W 008°27'0 0.0
2018-Dec-02 08:22N 51°54' W 008°27'1 3.3
2018-Dec-02 08:00N 51°54' W 008°26'4 7.2
2018-Dec-02 07:30N 51°53' W 008°20'3 5.2
2018-Dec-02 07:00N 51°51' W 008°17'3 6.9
2018-Dec-02 06:30N 51°48' W 008°16'2 4.3
2018-Dec-02 06:00N 51°46' W 008°13'4 7.0
2018-Dec-02 05:30N 51°46' W 008°07'4 7.8
2018-Dec-02 05:00N 51°48' W 008°01'4 7.7
2018-Dec-02 04:30N 51°50' W 007°56'4 7.9
2018-Dec-02 04:00N 51°52' W 007°50'4 7.9
2018-Dec-02 03:30N 51°54' W 007°45'4 7.7
2018-Dec-02 03:00N 51°56' W 007°40'88 6.9
2018-Dec-01 14:19N 52°58' W 005°57'2 6.9
2018-Dec-01 14:00N 52°60' W 005°57'4 7.1
2018-Dec-01 13:30N 53°03' W 005°57'7 7.5
2018-Dec-01 12:34N 53°10' W 005°58'9 8.5
2018-Dec-01 11:33N 53°19' W 005°58'3 0.9
2018-Dec-01 08:05N 53°22' W 006°00'1 2.9
2018-Dec-01 07:53N 53°22' W 005°60'1 3.2
2018-Dec-01 07:30N 53°20' W 005°60'2 3.4
2018-Dec-01 06:59N 53°19' W 005°59'11 6.9
2018-Dec-01 05:21N 53°08' W 005°58'3 8.8
2018-Dec-01 05:00N 53°04' W 005°58'5 9.1
2018-Dec-01 04:30N 52°60' W 005°57'4 8.9
2018-Dec-01 04:00N 52°55' W 005°57'4 6.8
2018-Dec-01 03:27N 52°52' W 005°59'81 5.8
2018-Nov-30 13:29N 51°53' W 007°29'4 8.5
2018-Nov-30 13:00N 51°52' W 007°36'4 8.5
2018-Nov-30 12:30N 51°51' W 007°42'4 8.5
2018-Nov-30 12:00N 51°49' W 007°49'4 8.7
2018-Nov-30 11:30N 51°48' W 007°56'4 8.7
2018-Nov-30 11:00N 51°47' W 008°02'4 8.5
2018-Nov-30 10:30N 51°46' W 008°09'4 8.1
2018-Nov-30 10:00N 51°47' W 008°15'4 7.2
2018-Nov-30 09:30N 51°50' W 008°16'3 5.4
2018-Nov-30 09:00N 51°52' W 008°20'3 6.2
2018-Nov-30 08:30N 51°54' W 008°23'3 5.1
2018-Nov-30 08:00N 51°54' W 008°27'0 0.3
2018-Nov-30 07:30N 51°54' W 008°28'0 0.0
2018-Nov-30 07:00N 51°54' W 008°28'0 0.0
2018-Nov-30 06:30N 51°54' W 008°28'0 0.0
2018-Nov-30 06:00N 51°54' W 008°28'0 0.0
2018-Nov-30 05:30N 51°54' W 008°28'0 0.0
2018-Nov-30 05:00N 51°54' W 008°28'0 0.0
2018-Nov-30 04:06N 51°54' W 008°28'0 0.0
2018-Nov-30 03:57N 51°54' W 008°28'0 0.0
2018-Nov-30 03:30N 51°54' W 008°28'0 0.0
2018-Nov-30 03:00N 51°54' W 008°28'0 0.0
2018-Nov-30 02:30N 51°54' W 008°28'0 0.0
2018-Nov-30 01:57N 51°54' W 008°28'0 0.0
2018-Nov-30 01:30N 51°54' W 008°28'0 0.0
2018-Nov-30 01:00N 51°54' W 008°28'0 0.0
2018-Nov-30 00:30N 51°54' W 008°28'0 0.0
2018-Nov-30 00:00N 51°54' W 008°28'0 0.0
2018-Nov-29 23:30N 51°54' W 008°28'0 0.0
2018-Nov-29 23:00N 51°54' W 008°28'0 0.0
2018-Nov-29 22:30N 51°54' W 008°28'0 0.0
2018-Nov-29 22:00N 51°54' W 008°28'0 0.0
2018-Nov-29 21:30N 51°54' W 008°28'0 0.0
2018-Nov-29 21:00N 51°54' W 008°28'0 0.0
2018-Nov-29 20:30N 51°54' W 008°28'0 0.0
2018-Nov-29 20:00N 51°54' W 008°28'0 0.0
2018-Nov-29 19:30N 51°54' W 008°28'0 0.0
2018-Nov-29 19:00N 51°54' W 008°28'0 0.0
2018-Nov-29 18:30N 51°54' W 008°28'0 0.0
2018-Nov-29 18:00N 51°54' W 008°28'0 0.0
2018-Nov-29 17:30N 51°54' W 008°28'0 0.0
2018-Nov-29 16:51N 51°54' W 008°28'0 0.0
2018-Nov-29 16:27N 51°54' W 008°28'0 0.0
2018-Nov-29 15:57N 51°54' W 008°28'0 0.0
2018-Nov-29 15:27N 51°54' W 008°28'0 0.0
2018-Nov-29 14:57N 51°54' W 008°28'0 0.0
2018-Nov-29 14:27N 51°54' W 008°28'0 0.0
2018-Nov-29 13:57N 51°54' W 008°28'0 0.0
2018-Nov-29 13:26N 51°54' W 008°28'0 0.0
2018-Nov-29 12:56N 51°54' W 008°28'0 0.0
2018-Nov-29 12:26N 51°54' W 008°28'0 0.0
2018-Nov-29 11:38N 51°54' W 008°28'0 0.0
2018-Nov-29 11:29N 51°54' W 008°28'0 0.0
2018-Nov-29 10:59N 51°54' W 008°28'0 0.0
2018-Nov-29 10:29N 51°54' W 008°28'0 0.0
2018-Nov-29 09:59N 51°54' W 008°28'0 0.0
2018-Nov-29 09:29N 51°54' W 008°28'0 0.0
2018-Nov-29 08:59N 51°54' W 008°28'0 0.0
2018-Nov-29 08:29N 51°54' W 008°28'0 0.0
2018-Nov-29 07:59N 51°54' W 008°28'0 0.0
2018-Nov-29 07:29N 51°54' W 008°28'0 0.0
2018-Nov-29 06:59N 51°54' W 008°28'0 0.0
2018-Nov-29 06:29N 51°54' W 008°28'0 0.0
2018-Nov-29 05:59N 51°54' W 008°28'0 0.0
2018-Nov-29 05:29N 51°54' W 008°28'0 0.0
2018-Nov-29 04:59N 51°54' W 008°28'0 0.0
2018-Nov-29 04:29N 51°54' W 008°28'0 0.0
2018-Nov-29 03:59N 51°54' W 008°28'0 0.0
2018-Nov-29 02:59N 51°54' W 008°28'0 0.0
2018-Nov-29 02:29N 51°54' W 008°28'0 0.0
2018-Nov-29 01:56N 51°54' W 008°28'0 0.0
2018-Nov-29 01:29N 51°54' W 008°28'0 0.0
2018-Nov-29 00:56N 51°54' W 008°28'0 0.0
2018-Nov-29 00:29N 51°54' W 008°28'0 0.0
2018-Nov-28 23:59N 51°54' W 008°28'0 0.0
2018-Nov-28 23:26N 51°54' W 008°28'0 0.0
2018-Nov-28 22:59N 51°54' W 008°28'0 0.0
2018-Nov-28 22:29N 51°54' W 008°28'0 0.0
2018-Nov-28 21:59N 51°54' W 008°28'0 0.0
2018-Nov-28 21:29N 51°54' W 008°28'0 0.0
2018-Nov-28 20:59N 51°54' W 008°28'0 0.0
2018-Nov-28 20:29N 51°54' W 008°28'0 0.0
2018-Nov-28 19:59N 51°54' W 008°28'0 0.0
2018-Nov-28 19:29N 51°54' W 008°28'0 0.0
2018-Nov-28 18:59N 51°54' W 008°28'0 0.0
2018-Nov-28 18:29N 51°54' W 008°28'0 0.0
2018-Nov-28 17:59N 51°54' W 008°28'0 0.0
2018-Nov-28 17:26N 51°54' W 008°28'0 0.0
2018-Nov-28 16:56N 51°54' W 008°28'0 0.0
2018-Nov-28 15:50N 51°54' W 008°28'0 0.0
2018-Nov-28 15:26N 51°54' W 008°28'0 0.0
2018-Nov-28 14:56N 51°54' W 008°28'0 0.0
2018-Nov-28 14:29N 51°54' W 008°28'0 0.0
2018-Nov-28 13:56N 51°54' W 008°28'0 0.0
2018-Nov-28 13:26N 51°54' W 008°28'0 0.0
2018-Nov-28 12:50N 51°54' W 008°28'0 0.0
2018-Nov-28 12:29N 51°54' W 008°28'0 0.0
2018-Nov-28 11:59N 51°54' W 008°28'0 0.0
2018-Nov-28 11:29N 51°54' W 008°28'0 0.0
2018-Nov-28 10:59N 51°54' W 008°28'0 0.0
2018-Nov-28 10:29N 51°54' W 008°28'0 0.0
2018-Nov-28 09:59N 51°54' W 008°28'0 0.0
2018-Nov-28 09:29N 51°54' W 008°28'0 0.0
2018-Nov-28 08:59N 51°54' W 008°28'0 0.0
2018-Nov-28 08:29N 51°54' W 008°28'0 0.0
2018-Nov-28 07:59N 51°54' W 008°28'0 0.0
2018-Nov-28 07:29N 51°54' W 008°28'0 0.0
2018-Nov-28 06:59N 51°54' W 008°28'0 0.0
2018-Nov-28 06:29N 51°54' W 008°28'0 0.0
2018-Nov-28 05:59N 51°54' W 008°28'0 0.0
2018-Nov-28 05:29N 51°54' W 008°28'0 0.0
2018-Nov-28 04:44N 51°54' W 008°28'0 0.0
2018-Nov-28 04:23N 51°54' W 008°28'0 0.0
2018-Nov-28 03:59N 51°54' W 008°28'0 0.0
2018-Nov-28 03:26N 51°54' W 008°28'0 0.0
2018-Nov-28 02:59N 51°54' W 008°28'0 0.0
2018-Nov-28 02:16N 51°54' W 008°28'0 0.0
2018-Nov-28 01:25N 51°54' W 008°28'0 0.0
2018-Nov-27 23:43N 51°54' W 008°28'0 0.0
2018-Nov-27 23:28N 51°54' W 008°28'0 0.0
2018-Nov-27 22:49N 51°54' W 008°28'0 0.0
2018-Nov-27 22:25N 51°54' W 008°28'0 0.0
2018-Nov-27 21:55N 51°54' W 008°28'0 0.0
2018-Nov-27 21:25N 51°54' W 008°28'0 0.0
2018-Nov-27 20:55N 51°54' W 008°28'0 0.0
2018-Nov-27 20:28N 51°54' W 008°28'0 0.0
2018-Nov-27 19:55N 51°54' W 008°28'0 0.0
2018-Nov-27 19:25N 51°54' W 008°28'0 0.0
2018-Nov-27 18:58N 51°54' W 008°28'0 0.0
2018-Nov-27 18:28N 51°54' W 008°28'0 0.0
2018-Nov-27 17:58N 51°54' W 008°28'0 0.0
2018-Nov-27 17:28N 51°54' W 008°28'0 0.0
2018-Nov-27 17:00N 51°54' W 008°28'2 3.5
2018-Nov-27 16:30N 51°54' W 008°25'4 7.5
2018-Nov-27 16:00N 51°52' W 008°20'3 5.5
2018-Nov-27 15:30N 51°51' W 008°16'2 3.3
2018-Nov-27 15:00N 51°49' W 008°16'2 3.3
2018-Nov-27 14:30N 51°51' W 008°16'2 3.2
2018-Nov-27 14:00N 51°49' W 008°16'1 1.2
2018-Nov-27 13:30N 51°50' W 008°16'1 2.5
2018-Nov-27 13:00N 51°51' W 008°16'0 0.5
2018-Nov-27 12:31N 51°51' W 008°16'2 3.9
2018-Nov-27 12:00N 51°49' W 008°16'1 2.5
2018-Nov-27 11:31N 51°50' W 008°16'0 0.1
2018-Nov-27 11:00N 51°50' W 008°16'0 0.6
2018-Nov-27 10:30N 51°50' W 008°16'2 4.8
2018-Nov-27 10:00N 51°51' W 008°20'4 7.1
2018-Nov-27 09:30N 51°54' W 008°23'3 5.5
2018-Nov-27 09:00N 51°54' W 008°28'0 0.1
2018-Nov-27 06:46N 51°54' W 008°28'0 0.0
2018-Nov-27 06:28N 51°54' W 008°28'0 0.0
2018-Nov-27 05:58N 51°54' W 008°28'0 0.0
2018-Nov-27 05:28N 51°54' W 008°28'0 0.0
2018-Nov-27 04:58N 51°54' W 008°28'0 0.0
2018-Nov-27 04:28N 51°54' W 008°28'0 0.0
2018-Nov-27 03:58N 51°54' W 008°28'0 0.0
2018-Nov-27 03:25N 51°54' W 008°28'0 0.0
2018-Nov-27 02:28N 51°54' W 008°28'0 0.0
2018-Nov-27 01:55N 51°54' W 008°28'0 0.0
2018-Nov-27 01:28N 51°54' W 008°28'0 0.0
2018-Nov-27 00:58N 51°54' W 008°28'0 0.0
2018-Nov-27 00:28N 51°54' W 008°28'  

Dump ship's entire track history